Autaugaville, Alabama
Current Conditions -  °F | °C
As of 2:15 AM on Monday 24 Nov 2014 (Local Time) from K1A9 Reporting Station
Overcast Overcast  
Wind Chill: 63°   Ceiling: 1500
Heat Index: 63°   Visibility: 10mi
Dew Point: 62°   Wind: 5mph
Humidity: 95%   Direction: 190°S
Pressure: 29.73"   Gusts: NA
Location:  32.43°N, 86.65°W
Report Text: K1A9 240815Z AUTO 19004KT 10SM OVC015 17/17 A2973 RMK AO2 T01730165
Loading
Personal Weather Stations






























Interactive Weather Map New forecast layout! Learn more

10-Day Weather Forecast

Advertisements
Track Severe Weather on mobile